sensor_id;sensor_type;location;lat;lon;timestamp;pressure;altitude;pressure_sealevel;temperature;humidity
59106;BME280;44891;50.204;8.132;2023-10-13T00:02:37;98171.34;;;16.66;100.00
59106;BME280;44891;50.204;8.132;2023-10-13T00:06:41;98170.53;;;16.66;100.00
59106;BME280;44891;50.204;8.132;2023-10-13T00:10:46;98169.75;;;16.65;100.00
59106;BME280;44891;50.204;8.132;2023-10-13T00:14:48;98161.78;;;16.65;100.00
59106;BME280;44891;50.204;8.132;2023-10-13T00:18:51;98166.53;;;16.68;100.00
59106;BME280;44891;50.204;8.132;2023-10-13T00:22:56;98156.06;;;16.53;100.00
59106;BME280;44891;50.204;8.132;2023-10-13T00:26:59;98152.78;;;16.66;100.00
59106;BME280;44891;50.204;8.132;2023-10-13T00:31:02;98162.31;;;16.67;100.00
59106;BME280;44891;50.204;8.132;2023-10-13T00:35:11;98161.22;;;16.68;100.00
59106;BME280;44891;50.204;8.132;2023-10-13T00:39:26;98155.34;;;16.76;100.00
59106;BME280;44891;50.204;8.132;2023-10-13T00:43:29;98146.09;;;16.74;100.00
59106;BME280;44891;50.204;8.132;2023-10-13T00:47:35;98134.19;;;16.71;100.00
59106;BME280;44891;50.204;8.132;2023-10-13T00:51:50;98135.03;;;16.62;100.00
59106;BME280;44891;50.204;8.132;2023-10-13T00:55:54;98128.91;;;16.71;100.00
59106;BME280;44891;50.204;8.132;2023-10-13T00:59:58;98129.41;;;16.73;100.00
59106;BME280;44891;50.204;8.132;2023-10-13T01:04:00;98121.66;;;16.77;100.00
59106;BME280;44891;50.204;8.132;2023-10-13T01:08:06;98130.97;;;16.69;100.00
59106;BME280;44891;50.204;8.132;2023-10-13T01:12:15;98129.09;;;16.75;100.00
59106;BME280;44891;50.204;8.132;2023-10-13T01:16:17;98131.09;;;16.59;100.00
59106;BME280;44891;50.204;8.132;2023-10-13T01:20:20;98123.59;;;16.66;100.00
59106;BME280;44891;50.204;8.132;2023-10-13T01:24:27;98133.28;;;16.81;100.00
59106;BME280;44891;50.204;8.132;2023-10-13T01:28:32;98127.91;;;16.57;100.00
59106;BME280;44891;50.204;8.132;2023-10-13T01:32:45;98134.19;;;16.71;100.00
59106;BME280;44891;50.204;8.132;2023-10-13T01:36:48;98122.03;;;16.65;100.00
59106;BME280;44891;50.204;8.132;2023-10-13T01:40:53;98119.88;;;16.67;100.00
59106;BME280;44891;50.204;8.132;2023-10-13T01:44:57;98110.34;;;16.66;100.00
59106;BME280;44891;50.204;8.132;2023-10-13T01:49:06;98104.28;;;16.61;100.00
59106;BME280;44891;50.204;8.132;2023-10-13T01:53:08;98090.69;;;16.72;100.00
59106;BME280;44891;50.204;8.132;2023-10-13T01:57:15;98077.72;;;16.71;100.00
59106;BME280;44891;50.204;8.132;2023-10-13T02:01:18;98085.13;;;16.69;100.00
59106;BME280;44891;50.204;8.132;2023-10-13T02:05:28;98090.69;;;16.72;100.00
59106;BME280;44891;50.204;8.132;2023-10-13T02:09:36;98092.31;;;16.63;100.00
59106;BME280;44891;50.204;8.132;2023-10-13T02:13:39;98087.81;;;16.64;100.00
59106;BME280;44891;50.204;8.132;2023-10-13T02:17:49;98074.78;;;16.67;100.00
59106;BME280;44891;50.204;8.132;2023-10-13T02:21:52;98066.25;;;16.46;100.00
59106;BME280;44891;50.204;8.132;2023-10-13T02:25:59;98063.72;;;16.60;100.00
59106;BME280;44891;50.204;8.132;2023-10-13T02:30:06;98051.25;;;16.61;100.00
59106;BME280;44891;50.204;8.132;2023-10-13T02:34:14;98039.88;;;16.60;100.00
59106;BME280;44891;50.204;8.132;2023-10-13T02:38:16;98042.53;;;16.60;100.00
59106;BME280;44891;50.204;8.132;2023-10-13T02:42:27;98040.16;;;16.58;100.00
59106;BME280;44891;50.204;8.132;2023-10-13T02:46:31;98045.72;;;16.57;100.00
59106;BME280;44891;50.204;8.132;2023-10-13T02:50:39;98023.28;;;16.49;100.00
59106;BME280;44891;50.204;8.132;2023-10-13T02:54:44;98020.16;;;16.71;100.00
59106;BME280;44891;50.204;8.132;2023-10-13T02:58:52;98019.59;;;16.74;100.00
59106;BME280;44891;50.204;8.132;2023-10-13T03:02:58;98017.72;;;16.75;100.00
59106;BME280;44891;50.204;8.132;2023-10-13T03:07:01;98011.00;;;16.82;100.00
59106;BME280;44891;50.204;8.132;2023-10-13T03:11:04;98012.09;;;16.81;100.00
59106;BME280;44891;50.204;8.132;2023-10-13T03:15:08;98001.72;;;16.85;100.00
59106;BME280;44891;50.204;8.132;2023-10-13T03:19:19;97998.97;;;16.90;100.00
59106;BME280;44891;50.204;8.132;2023-10-13T03:23:21;98005.09;;;16.91;100.00
59106;BME280;44891;50.204;8.132;2023-10-13T03:27:25;97995.19;;;16.77;100.00
59106;BME280;44891;50.204;8.132;2023-10-13T03:31:40;97991.59;;;16.87;100.00
59106;BME280;44891;50.204;8.132;2023-10-13T03:35:47;97991.69;;;17.01;100.00
59106;BME280;44891;50.204;8.132;2023-10-13T03:39:54;97996.44;;;17.04;100.00
59106;BME280;44891;50.204;8.132;2023-10-13T03:43:57;98008.44;;;16.96;100.00
59106;BME280;44891;50.204;8.132;2023-10-13T03:48:10;98003.16;;;16.96;100.00
59106;BME280;44891;50.204;8.132;2023-10-13T03:52:23;97985.88;;;16.99;100.00
59106;BME280;44891;50.204;8.132;2023-10-13T03:56:28;97980.59;;;16.99;100.00
59106;BME280;44891;50.204;8.132;2023-10-13T04:00:39;97981.13;;;16.96;100.00
59106;BME280;44891;50.204;8.132;2023-10-13T04:04:43;97968.81;;;16.86;100.00
59106;BME280;44891;50.204;8.132;2023-10-13T04:08:51;97963.84;;;16.79;100.00
59106;BME280;44891;50.204;8.132;2023-10-13T04:13:07;97966.00;;;16.77;100.00
59106;BME280;44891;50.204;8.132;2023-10-13T04:17:23;97935.53;;;16.51;100.00
59106;BME280;44891;50.204;8.132;2023-10-13T04:21:26;97960.41;;;16.79;100.00
59106;BME280;44891;50.204;8.132;2023-10-13T04:25:42;97952.16;;;16.80;100.00
59106;BME280;44891;50.204;8.132;2023-10-13T04:30:05;97955.53;;;16.86;100.00
59106;BME280;44891;50.204;8.132;2023-10-13T04:34:24;97948.44;;;16.81;100.00
59106;BME280;44891;50.204;8.132;2023-10-13T04:38:39;97940.91;;;16.89;100.00
59106;BME280;44891;50.204;8.132;2023-10-13T04:42:57;97924.00;;;16.84;100.00
59106;BME280;44891;50.204;8.132;2023-10-13T04:47:05;97924.00;;;16.84;100.00
59106;BME280;44891;50.204;8.132;2023-10-13T04:51:09;97916.06;;;16.84;100.00
59106;BME280;44891;50.204;8.132;2023-10-13T04:55:48;97918.41;;;16.86;100.00
59106;BME280;44891;50.204;8.132;2023-10-13T05:00:04;97920.47;;;16.89;100.00
59106;BME280;44891;50.204;8.132;2023-10-13T05:04:24;97914.19;;;16.85;100.00
59106;BME280;44891;50.204;8.132;2023-10-13T05:08:39;97905.66;;;16.88;100.00
59106;BME280;44891;50.204;8.132;2023-10-13T05:12:59;97902.56;;;16.81;100.00
59106;BME280;44891;50.204;8.132;2023-10-13T05:17:20;97893.69;;;16.91;100.00
59106;BME280;44891;50.204;8.132;2023-10-13T05:21:40;97904.78;;;16.93;100.00
59106;BME280;44891;50.204;8.132;2023-10-13T05:26:01;97910.22;;;16.82;100.00
59106;BME280;44891;50.204;8.132;2023-10-13T05:30:21;97919.19;;;16.87;100.00
59106;BME280;44891;50.204;8.132;2023-10-13T05:34:42;97906.38;;;16.94;100.00
59106;BME280;44891;50.204;8.132;2023-10-13T05:39:02;97902.56;;;16.81;100.00
59106;BME280;44891;50.204;8.132;2023-10-13T05:43:22;97902.16;;;16.93;100.00
59106;BME280;44891;50.204;8.132;2023-10-13T05:47:42;97879.34;;;16.73;100.00
59106;BME280;44891;50.204;8.132;2023-10-13T05:52:03;97904.06;;;16.87;100.00
59106;BME280;44891;50.204;8.132;2023-10-13T05:56:19;97893.88;;;16.75;100.00
59106;BME280;44891;50.204;8.132;2023-10-13T06:00:40;97891.03;;;16.72;100.00
59106;BME280;44891;50.204;8.132;2023-10-13T06:05:01;97887.50;;;16.76;100.00
59106;BME280;44891;50.204;8.132;2023-10-13T06:09:24;97884.28;;;16.79;100.00
59106;BME280;44891;50.204;8.132;2023-10-13T06:13:44;97891.66;;;16.82;100.00
59106;BME280;44891;50.204;8.132;2023-10-13T06:18:04;97881.22;;;16.91;100.00
59106;BME280;44891;50.204;8.132;2023-10-13T06:22:23;97884.50;;;17.02;100.00
59106;BME280;44891;50.204;8.132;2023-10-13T06:26:47;97889.31;;;17.00;100.00
59106;BME280;44891;50.204;8.132;2023-10-13T06:31:07;97894.53;;;17.05;100.00
59106;BME280;44891;50.204;8.132;2023-10-13T06:35:15;97894.91;;;17.17;100.00
59106;BME280;44891;50.204;8.132;2023-10-13T06:39:23;97899.75;;;17.10;100.00
59106;BME280;44891;50.204;8.132;2023-10-13T06:43:38;97891.72;;;17.15;100.00
59106;BME280;44891;50.204;8.132;2023-10-13T06:47:41;97898.34;;;17.18;100.00
59106;BME280;44891;50.204;8.132;2023-10-13T06:51:44;97896.47;;;17.18;100.00
59106;BME280;44891;50.204;8.132;2023-10-13T06:55:47;97897.88;;;17.29;100.00
59106;BME280;44891;50.204;8.132;2023-10-13T06:59:54;97886.22;;;17.30;100.00
59106;BME280;44891;50.204;8.132;2023-10-13T07:03:57;97886.09;;;17.35;100.00
59106;BME280;44891;50.204;8.132;2023-10-13T07:08:04;97881.00;;;17.39;100.00
59106;BME280;44891;50.204;8.132;2023-10-13T07:12:07;97880.16;;;17.44;100.00
59106;BME280;44891;50.204;8.132;2023-10-13T07:16:18;97887.63;;;17.55;100.00
59106;BME280;44891;50.204;8.132;2023-10-13T07:20:20;97882.06;;;17.57;100.00
59106;BME280;44891;50.204;8.132;2023-10-13T07:24:34;97881.53;;;17.74;100.00
59106;BME280;44891;50.204;8.132;2023-10-13T07:28:40;97894.84;;;17.68;100.00
59106;BME280;44891;50.204;8.132;2023-10-13T07:32:45;97887.25;;;17.81;97.82
59106;BME280;44891;50.204;8.132;2023-10-13T07:36:48;97891.47;;;17.96;94.81
59106;BME280;44891;50.204;8.132;2023-10-13T07:40:50;97889.03;;;17.85;97.56
59106;BME280;44891;50.204;8.132;2023-10-13T07:44:52;97882.72;;;17.95;92.63
59106;BME280;44891;50.204;8.132;2023-10-13T07:48:57;97884.81;;;17.98;90.81
59106;BME280;44891;50.204;8.132;2023-10-13T07:53:09;97887.47;;;17.98;90.41
59106;BME280;44891;50.204;8.132;2023-10-13T07:57:23;97881.56;;;18.15;87.32
59106;BME280;44891;50.204;8.132;2023-10-13T08:01:30;97874.28;;;18.34;88.02
59106;BME280;44891;50.204;8.132;2023-10-13T08:05:34;97863.06;;;18.37;86.35
59106;BME280;44891;50.204;8.132;2023-10-13T08:09:43;97868.28;;;18.42;84.48
59106;BME280;44891;50.204;8.132;2023-10-13T08:13:53;97859.78;;;18.40;86.56
59106;BME280;44891;50.204;8.132;2023-10-13T08:17:57;97853.78;;;18.48;83.27
59106;BME280;44891;50.204;8.132;2023-10-13T08:22:02;97851.38;;;18.61;82.44
59106;BME280;44891;50.204;8.132;2023-10-13T08:26:25;97859.66;;;18.73;81.42
59106;BME280;44891;50.204;8.132;2023-10-13T08:31:02;97850.91;;;18.59;81.80
59106;BME280;44891;50.204;8.132;2023-10-13T08:35:15;97837.00;;;18.76;80.75
59106;BME280;44891;50.204;8.132;2023-10-13T08:39:41;97831.44;;;19.08;79.42
59106;BME280;44891;50.204;8.132;2023-10-13T08:44:07;97819.91;;;19.35;79.23
59106;BME280;44891;50.204;8.132;2023-10-13T08:48:31;97824.03;;;19.72;78.78
59106;BME280;44891;50.204;8.132;2023-10-13T08:52:33;97832.31;;;19.62;80.58
59106;BME280;44891;50.204;8.132;2023-10-13T08:56:51;97845.03;;;19.74;78.21
59106;BME280;44891;50.204;8.132;2023-10-13T09:00:57;97844.31;;;19.82;78.94
59106;BME280;44891;50.204;8.132;2023-10-13T09:05:12;97832.91;;;19.99;78.74
59106;BME280;44891;50.204;8.132;2023-10-13T09:09:29;97837.09;;;20.31;76.92
59106;BME280;44891;50.204;8.132;2023-10-13T09:13:59;97845.66;;;20.68;77.42
59106;BME280;44891;50.204;8.132;2023-10-13T09:18:04;97825.38;;;21.10;74.34
59106;BME280;44891;50.204;8.132;2023-10-13T09:22:22;97820.22;;;20.70;75.86
59106;BME280;44891;50.204;8.132;2023-10-13T09:26:36;97809.22;;;20.72;75.98
59106;BME280;44891;50.204;8.132;2023-10-13T09:30:44;97817.91;;;21.59;72.50
59106;BME280;44891;50.204;8.132;2023-10-13T09:34:46;97817.13;;;21.67;73.61
59106;BME280;44891;50.204;8.132;2023-10-13T09:38:52;97817.00;;;21.55;72.13
59106;BME280;44891;50.204;8.132;2023-10-13T09:43:13;97816.94;;;21.72;72.28
59106;BME280;44891;50.204;8.132;2023-10-13T09:47:22;97816.41;;;22.25;71.41
59106;BME280;44891;50.204;8.132;2023-10-13T09:51:33;97812.66;;;22.18;69.91
59106;BME280;44891;50.204;8.132;2023-10-13T09:55:38;97813.16;;;23.94;66.01
59106;BME280;44891;50.204;8.132;2023-10-13T09:59:49;97826.22;;;24.57;64.46
59106;BME280;44891;50.204;8.132;2023-10-13T10:03:54;97835.03;;;24.21;64.20
59106;BME280;44891;50.204;8.132;2023-10-13T10:08:08;97819.19;;;23.00;68.00
59106;BME280;44891;50.204;8.132;2023-10-13T10:12:21;97825.78;;;24.30;63.71
59106;BME280;44891;50.204;8.132;2023-10-13T10:16:37;97815.38;;;23.01;68.01
59106;BME280;44891;50.204;8.132;2023-10-13T10:21:03;97816.63;;;22.41;69.68
59106;BME280;44891;50.204;8.132;2023-10-13T10:25:13;97810.63;;;21.77;72.75
59106;BME280;44891;50.204;8.132;2023-10-13T10:29:27;97804.03;;;21.74;72.50
59106;BME280;44891;50.204;8.132;2023-10-13T10:33:33;97789.91;;;21.09;74.10
59106;BME280;44891;50.204;8.132;2023-10-13T10:37:37;97783.75;;;21.26;72.58
59106;BME280;44891;50.204;8.132;2023-10-13T10:41:43;97788.44;;;21.38;73.67
59106;BME280;44891;50.204;8.132;2023-10-13T10:45:53;97776.28;;;22.46;69.72
59106;BME280;44891;50.204;8.132;2023-10-13T10:50:00;97765.53;;;25.56;61.12
59106;BME280;44891;50.204;8.132;2023-10-13T10:54:18;97747.56;;;31.88;45.99
59106;BME280;44891;50.204;8.132;2023-10-13T10:58:20;97752.81;;;25.09;58.69
59106;BME280;44891;50.204;8.132;2023-10-13T11:02:30;97754.97;;;22.71;67.64
59106;BME280;44891;50.204;8.132;2023-10-13T11:06:32;97752.84;;;22.64;69.12
59106;BME280;44891;50.204;8.132;2023-10-13T11:10:46;97720.41;;;22.66;68.95
59106;BME280;44891;50.204;8.132;2023-10-13T11:14:59;97704.66;;;22.64;69.22
59106;BME280;44891;50.204;8.132;2023-10-13T11:19:02;97709.31;;;24.07;64.56
59106;BME280;44891;50.204;8.132;2023-10-13T11:23:11;97701.72;;;27.73;53.73
59106;BME280;44891;50.204;8.132;2023-10-13T11:27:15;97706.22;;;32.54;44.92
59106;BME280;44891;50.204;8.132;2023-10-13T11:31:22;97701.78;;;31.22;46.08
59106;BME280;44891;50.204;8.132;2023-10-13T11:35:25;97695.41;;;32.46;44.02
59106;BME280;44891;50.204;8.132;2023-10-13T11:39:30;97700.25;;;31.60;44.67
59106;BME280;44891;50.204;8.132;2023-10-13T11:43:46;97698.19;;;36.47;37.93
59106;BME280;44891;50.204;8.132;2023-10-13T11:48:06;97700.09;;;30.53;45.77
59106;BME280;44891;50.204;8.132;2023-10-13T11:52:15;97695.34;;;26.31;55.81
59106;BME280;44891;50.204;8.132;2023-10-13T11:56:20;97683.16;;;25.16;58.95
59106;BME280;44891;50.204;8.132;2023-10-13T12:00:24;97687.59;;;27.56;54.45
59106;BME280;44891;50.204;8.132;2023-10-13T12:04:48;97683.59;;;26.59;55.73
59106;BME280;44891;50.204;8.132;2023-10-13T12:08:52;97685.50;;;25.17;60.75
59106;BME280;44891;50.204;8.132;2023-10-13T12:12:54;97670.31;;;24.65;61.20
59106;BME280;44891;50.204;8.132;2023-10-13T12:16:57;97673.91;;;23.89;63.87
59106;BME280;44891;50.204;8.132;2023-10-13T12:21:08;97661.53;;;23.11;65.72
59106;BME280;44891;50.204;8.132;2023-10-13T12:25:11;97655.38;;;23.11;66.16
59106;BME280;44891;50.204;8.132;2023-10-13T12:29:26;97655.03;;;22.67;67.07
59106;BME280;44891;50.204;8.132;2023-10-13T12:33:31;97643.22;;;22.35;67.70
59106;BME280;44891;50.204;8.132;2023-10-13T12:37:38;97640.41;;;22.52;67.40
59106;BME280;44891;50.204;8.132;2023-10-13T12:41:50;97640.84;;;22.54;66.83
59106;BME280;44891;50.204;8.132;2023-10-13T12:46:10;97639.38;;;22.90;65.81
59106;BME280;44891;50.204;8.132;2023-10-13T12:50:33;97637.72;;;23.10;64.64
59106;BME280;44891;50.204;8.132;2023-10-13T12:54:45;97631.16;;;23.68;61.92
59106;BME280;44891;50.204;8.132;2023-10-13T12:58:48;97638.97;;;23.37;62.86
59106;BME280;44891;50.204;8.132;2023-10-13T13:02:53;97639.41;;;23.02;63.91
59106;BME280;44891;50.204;8.132;2023-10-13T13:06:57;97630.59;;;23.14;63.65
59106;BME280;44891;50.204;8.132;2023-10-13T13:10:59;97630.16;;;23.36;60.72
59106;BME280;44891;50.204;8.132;2023-10-13T13:15:02;97623.22;;;23.47;59.54
59106;BME280;44891;50.204;8.132;2023-10-13T13:19:09;97611.81;;;23.75;59.60
59106;BME280;44891;50.204;8.132;2023-10-13T13:23:16;97597.00;;;24.21;58.05
59106;BME280;44891;50.204;8.132;2023-10-13T13:27:18;97601.91;;;25.93;53.78
59106;BME280;44891;50.204;8.132;2023-10-13T13:31:23;97593.53;;;33.17;38.76
59106;BME280;44891;50.204;8.132;2023-10-13T13:35:29;97590.75;;;29.96;43.43
59106;BME280;44891;50.204;8.132;2023-10-13T13:39:36;97582.88;;;32.33;39.54
59106;BME280;44891;50.204;8.132;2023-10-13T13:43:44;97586.69;;;32.43;39.19
59106;BME280;44891;50.204;8.132;2023-10-13T13:47:57;97561.81;;;33.41;37.73
59106;BME280;44891;50.204;8.132;2023-10-13T13:51:59;97562.69;;;31.25;41.09
59106;BME280;44891;50.204;8.132;2023-10-13T13:56:07;97548.53;;;33.06;38.16
59106;BME280;44891;50.204;8.132;2023-10-13T14:00:10;97541.38;;;31.24;40.33
59106;BME280;44891;50.204;8.132;2023-10-13T14:04:17;97528.22;;;34.67;36.48
59106;BME280;44891;50.204;8.132;2023-10-13T14:08:19;97530.38;;;35.46;34.63
59106;BME280;44891;50.204;8.132;2023-10-13T14:12:24;97536.53;;;36.91;33.09
59106;BME280;44891;50.204;8.132;2023-10-13T14:16:42;97523.09;;;34.49;34.45
59106;BME280;44891;50.204;8.132;2023-10-13T14:20:46;97529.91;;;37.50;31.23
59106;BME280;44891;50.204;8.132;2023-10-13T14:24:49;97520.38;;;36.80;32.97
59106;BME280;44891;50.204;8.132;2023-10-13T14:28:56;97517.66;;;36.80;32.32
59106;BME280;44891;50.204;8.132;2023-10-13T14:33:03;97506.28;;;28.41;42.29
59106;BME280;44891;50.204;8.132;2023-10-13T14:37:11;97506.41;;;26.94;46.42
59106;BME280;44891;50.204;8.132;2023-10-13T14:41:14;97496.72;;;26.21;48.08
59106;BME280;44891;50.204;8.132;2023-10-13T14:45:17;97482.03;;;25.02;51.49
59106;BME280;44891;50.204;8.132;2023-10-13T14:49:19;97477.66;;;25.10;52.71
59106;BME280;44891;50.204;8.132;2023-10-13T14:53:21;97483.72;;;24.91;53.28
59106;BME280;44891;50.204;8.132;2023-10-13T14:57:24;97464.88;;;24.40;55.65
59106;BME280;44891;50.204;8.132;2023-10-13T15:01:27;97455.84;;;24.01;56.76
59106;BME280;44891;50.204;8.132;2023-10-13T15:05:30;97455.63;;;23.78;57.99
59106;BME280;44891;50.204;8.132;2023-10-13T15:09:34;97451.84;;;23.95;57.94
59106;BME280;44891;50.204;8.132;2023-10-13T15:13:36;97445.22;;;23.48;59.83
59106;BME280;44891;50.204;8.132;2023-10-13T15:17:39;97449.31;;;23.58;59.83
59106;BME280;44891;50.204;8.132;2023-10-13T15:21:42;97430.91;;;23.16;60.99
59106;BME280;44891;50.204;8.132;2023-10-13T15:25:49;97433.94;;;23.15;60.71
59106;BME280;44891;50.204;8.132;2023-10-13T15:29:52;97444.81;;;22.94;60.88
59106;BME280;44891;50.204;8.132;2023-10-13T15:33:56;97438.34;;;22.95;60.57
59106;BME280;44891;50.204;8.132;2023-10-13T15:37:58;97439.78;;;22.80;60.86
59106;BME280;44891;50.204;8.132;2023-10-13T15:42:02;97439.44;;;22.82;59.73
59106;BME280;44891;50.204;8.132;2023-10-13T15:46:15;97427.63;;;22.83;59.93
59106;BME280;44891;50.204;8.132;2023-10-13T15:50:18;97426.84;;;22.58;59.99
59106;BME280;44891;50.204;8.132;2023-10-13T15:54:21;97417.28;;;22.44;60.53
59106;BME280;44891;50.204;8.132;2023-10-13T15:58:24;97418.72;;;22.54;58.83
59106;BME280;44891;50.204;8.132;2023-10-13T16:02:27;97418.06;;;22.45;59.53
59106;BME280;44891;50.204;8.132;2023-10-13T16:06:30;97405.69;;;22.40;59.15
59106;BME280;44891;50.204;8.132;2023-10-13T16:10:32;97411.47;;;22.30;59.26
59106;BME280;44891;50.204;8.132;2023-10-13T16:14:35;97412.59;;;22.17;60.24
59106;BME280;44891;50.204;8.132;2023-10-13T16:18:37;97418.28;;;22.15;60.25
59106;BME280;44891;50.204;8.132;2023-10-13T16:22:40;97406.41;;;22.04;60.47
59106;BME280;44891;50.204;8.132;2023-10-13T16:26:45;97390.84;;;22.06;59.63
59106;BME280;44891;50.204;8.132;2023-10-13T16:30:50;97387.38;;;21.93;59.91
59106;BME280;44891;50.204;8.132;2023-10-13T16:34:54;97385.91;;;21.96;60.56
59106;BME280;44891;50.204;8.132;2023-10-13T16:38:59;97383.75;;;21.77;61.06
59106;BME280;44891;50.204;8.132;2023-10-13T16:43:02;97374.97;;;21.77;60.55
59106;BME280;44891;50.204;8.132;2023-10-13T16:47:04;97369.59;;;21.64;61.46
59106;BME280;44891;50.204;8.132;2023-10-13T16:51:06;97348.56;;;21.30;62.71
59106;BME280;44891;50.204;8.132;2023-10-13T16:55:16;97362.69;;;21.63;60.18
59106;BME280;44891;50.204;8.132;2023-10-13T16:59:18;97356.47;;;21.71;58.96
59106;BME280;44891;50.204;8.132;2023-10-13T17:03:20;97359.47;;;21.70;59.72
59106;BME280;44891;50.204;8.132;2023-10-13T17:07:30;97349.88;;;21.57;59.93
59106;BME280;44891;50.204;8.132;2023-10-13T17:11:33;97352.69;;;21.73;58.21
59106;BME280;44891;50.204;8.132;2023-10-13T17:15:36;97348.91;;;21.74;58.62
59106;BME280;44891;50.204;8.132;2023-10-13T17:19:38;97347.13;;;21.90;57.22
59106;BME280;44891;50.204;8.132;2023-10-13T17:23:41;97342.47;;;21.87;57.94
59106;BME280;44891;50.204;8.132;2023-10-13T17:27:44;97337.00;;;21.83;57.67
59106;BME280;44891;50.204;8.132;2023-10-13T17:31:46;97341.34;;;21.88;57.15
59106;BME280;44891;50.204;8.132;2023-10-13T17:35:49;97343.13;;;21.84;56.82
59106;BME280;44891;50.204;8.132;2023-10-13T17:39:51;97347.69;;;21.83;56.86
59106;BME280;44891;50.204;8.132;2023-10-13T17:43:55;97344.13;;;21.79;57.35
59106;BME280;44891;50.204;8.132;2023-10-13T17:47:58;97336.63;;;21.60;57.87
59106;BME280;44891;50.204;8.132;2023-10-13T17:52:01;97340.66;;;21.66;57.14
59106;BME280;44891;50.204;8.132;2023-10-13T17:56:06;97334.16;;;21.55;57.55
59106;BME280;44891;50.204;8.132;2023-10-13T18:00:13;97329.94;;;21.54;58.06
59106;BME280;44891;50.204;8.132;2023-10-13T18:04:16;97320.00;;;21.42;57.64
59106;BME280;44891;50.204;8.132;2023-10-13T18:08:19;97307.19;;;21.36;58.44
59106;BME280;44891;50.204;8.132;2023-10-13T18:12:21;97309.44;;;21.58;56.33
59106;BME280;44891;50.204;8.132;2023-10-13T18:16:24;97307.56;;;21.26;58.00
59106;BME280;44891;50.204;8.132;2023-10-13T18:20:27;97295.88;;;21.63;55.75
59106;BME280;44891;50.204;8.132;2023-10-13T18:24:29;97296.53;;;21.48;56.93
59106;BME280;44891;50.204;8.132;2023-10-13T18:28:32;97297.22;;;21.24;57.56
59106;BME280;44891;50.204;8.132;2023-10-13T18:32:36;97289.34;;;21.28;57.07
59106;BME280;44891;50.204;8.132;2023-10-13T18:36:38;97289.31;;;21.15;57.13
59106;BME280;44891;50.204;8.132;2023-10-13T18:40:40;97282.59;;;21.09;58.03
59106;BME280;44891;50.204;8.132;2023-10-13T18:44:42;97280.88;;;21.26;56.41
59106;BME280;44891;50.204;8.132;2023-10-13T18:48:45;97278.63;;;21.15;56.27
59106;BME280;44891;50.204;8.132;2023-10-13T18:52:48;97287.31;;;21.25;56.17
59106;BME280;44891;50.204;8.132;2023-10-13T18:56:50;97281.31;;;21.28;55.39
59106;BME280;44891;50.204;8.132;2023-10-13T19:00:52;97261.38;;;21.46;54.31
59106;BME280;44891;50.204;8.132;2023-10-13T19:04:56;97276.06;;;21.64;52.98
59106;BME280;44891;50.204;8.132;2023-10-13T19:08:58;97280.94;;;21.50;53.35
59106;BME280;44891;50.204;8.132;2023-10-13T19:13:00;97266.47;;;21.51;53.84
59106;BME280;44891;50.204;8.132;2023-10-13T19:17:02;97265.72;;;21.63;53.01
59106;BME280;44891;50.204;8.132;2023-10-13T19:21:06;97276.16;;;21.56;53.56
59106;BME280;44891;50.204;8.132;2023-10-13T19:25:15;97283.38;;;21.43;53.72
59106;BME280;44891;50.204;8.132;2023-10-13T19:29:17;97273.63;;;21.59;52.93
59106;BME280;44891;50.204;8.132;2023-10-13T19:33:20;97269.84;;;21.73;53.02
59106;BME280;44891;50.204;8.132;2023-10-13T19:37:23;97274.09;;;21.74;52.94
59106;BME280;44891;50.204;8.132;2023-10-13T19:41:26;97267.06;;;21.69;53.27
59106;BME280;44891;50.204;8.132;2023-10-13T19:45:28;97201.75;;;21.21;53.79
59106;BME280;44891;50.204;8.132;2023-10-13T19:49:30;97264.59;;;21.64;53.23
59106;BME280;44891;50.204;8.132;2023-10-13T19:53:33;97258.59;;;21.55;53.88
59106;BME280;44891;50.204;8.132;2023-10-13T19:57:35;97258.13;;;21.40;54.34
59106;BME280;44891;50.204;8.132;2023-10-13T20:01:39;97275.81;;;21.33;55.38
59106;BME280;44891;50.204;8.132;2023-10-13T20:05:43;97269.13;;;21.39;54.98
59106;BME280;44891;50.204;8.132;2023-10-13T20:09:46;97266.13;;;21.28;55.63
59106;BME280;44891;50.204;8.132;2023-10-13T20:13:48;97280.69;;;21.31;55.45
59106;BME280;44891;50.204;8.132;2023-10-13T20:17:51;97279.63;;;21.23;56.21
59106;BME280;44891;50.204;8.132;2023-10-13T20:21:53;97281.69;;;21.38;56.14
59106;BME280;44891;50.204;8.132;2023-10-13T20:25:57;97270.91;;;21.35;57.01
59106;BME280;44891;50.204;8.132;2023-10-13T20:30:01;97276.75;;;21.61;56.66
59106;BME280;44891;50.204;8.132;2023-10-13T20:34:09;97279.16;;;21.42;57.34
59106;BME280;44891;50.204;8.132;2023-10-13T20:38:13;97271.19;;;21.66;57.15
59106;BME280;44891;50.204;8.132;2023-10-13T20:42:20;97278.06;;;21.55;58.02
59106;BME280;44891;50.204;8.132;2023-10-13T20:46:22;97265.91;;;21.33;59.36
59106;BME280;44891;50.204;8.132;2023-10-13T20:50:24;97268.03;;;21.52;58.31
59106;BME280;44891;50.204;8.132;2023-10-13T20:54:26;97268.03;;;21.40;58.91
59106;BME280;44891;50.204;8.132;2023-10-13T20:58:32;97273.25;;;21.36;59.25
59106;BME280;44891;50.204;8.132;2023-10-13T21:02:38;97281.16;;;21.45;59.18
59106;BME280;44891;50.204;8.132;2023-10-13T21:06:43;97285.69;;;21.32;60.14
59106;BME280;44891;50.204;8.132;2023-10-13T21:10:45;97280.88;;;21.26;60.62
59106;BME280;44891;50.204;8.132;2023-10-13T21:14:50;97276.47;;;21.30;60.38
59106;BME280;44891;50.204;8.132;2023-10-13T21:18:52;97277.38;;;21.34;60.28
59106;BME280;44891;50.204;8.132;2023-10-13T21:22:55;97265.66;;;21.26;60.41
59106;BME280;44891;50.204;8.132;2023-10-13T21:26:58;97251.72;;;21.21;60.85
59106;BME280;44891;50.204;8.132;2023-10-13T21:31:06;97264.16;;;21.16;61.39
59106;BME280;44891;50.204;8.132;2023-10-13T21:35:10;97254.34;;;21.08;61.87
59106;BME280;44891;50.204;8.132;2023-10-13T21:39:12;97254.31;;;20.96;62.44
59106;BME280;44891;50.204;8.132;2023-10-13T21:43:14;97263.34;;;21.04;61.18
59106;BME280;44891;50.204;8.132;2023-10-13T21:47:17;97246.16;;;20.92;61.52